Terminal Aerodrome Forecast
Issued by NWS Topeka, KS

Home | Current Version | Previous Version | Text Only | Print | Product List | Glossary Off
Versions: 1 2 3 4 5 6 7 8 9 10 11 12 13 14 15 16 17 18 19 20 21 22

000
FTUS43 KTOP 030700 AAA
TAFTOP
TAF AMD
KTOP 030742Z 0308/0406 18010KT P6SM VCTS SCT050CB WS020/19030KT
     FM031100 18010KT P6SM SCT015
     FM031400 18015G22KT P6SM FEW150
     FM040100 16010KT P6SM SCT120=

USA.gov is the U.S. government's official web portal to all federal, state and local government web resources and services.